createdAt,value
2023-09-20T00:00:14.443Z,11.48
2023-09-20T00:02:41.783Z,9.98
2023-09-20T00:05:15.922Z,10.80
2023-09-20T00:07:43.659Z,8.00
2023-09-20T00:10:16.430Z,13.60
2023-09-20T00:12:45.284Z,11.45
2023-09-20T00:15:12.888Z,8.30
2023-09-20T00:17:40.378Z,9.77
2023-09-20T00:20:14.490Z,13.13
2023-09-20T00:22:45.686Z,10.25
2023-09-20T00:25:13.563Z,9.50
2023-09-20T00:27:42.555Z,10.88
2023-09-20T00:30:15.424Z,9.25
2023-09-20T00:32:44.466Z,8.63
2023-09-20T00:35:12.749Z,9.27
2023-09-20T00:37:43.270Z,11.13
2023-09-20T00:40:17.883Z,9.68
2023-09-20T00:42:46.889Z,10.52
2023-09-20T00:45:17.471Z,8.18
2023-09-20T00:47:45.861Z,12.18
2023-09-20T00:52:41.897Z,10.88
2023-09-20T00:55:10.776Z,8.63
2023-09-20T00:57:38.512Z,11.40
2023-09-20T01:00:14.632Z,11.30
2023-09-20T01:02:42.268Z,8.48
2023-09-20T01:05:10.187Z,8.70
2023-09-20T01:07:37.396Z,10.85
2023-09-20T01:10:06.011Z,12.13
2023-09-20T01:12:33.342Z,13.45
2023-09-20T01:15:00.586Z,12.07
2023-09-20T01:17:27.807Z,8.07
2023-09-20T01:19:55.126Z,11.07
2023-09-20T01:22:22.347Z,13.15
2023-09-20T01:24:49.512Z,10.77
2023-09-20T01:27:16.681Z,8.85
2023-09-20T01:29:44.884Z,11.02
2023-09-20T01:32:13.263Z,10.75
2023-09-20T01:34:42.964Z,7.38
2023-09-20T01:37:10.221Z,14.48
2023-09-20T01:39:37.414Z,10.60
2023-09-20T01:42:05.481Z,13.98
2023-09-20T01:44:32.698Z,14.27
2023-09-20T01:47:02.843Z,9.55
2023-09-20T01:49:30.273Z,8.80
2023-09-20T01:51:58.938Z,11.25
2023-09-20T01:54:29.867Z,9.55
2023-09-20T01:56:57.088Z,7.72
2023-09-20T01:59:24.278Z,9.32
2023-09-20T02:01:51.452Z,6.78
2023-09-20T02:04:20.059Z,11.43
2023-09-20T02:06:47.962Z,9.60
2023-09-20T02:09:15.878Z,7.07
2023-09-20T02:11:43.050Z,6.30
2023-09-20T02:14:12.464Z,9.90
2023-09-20T02:16:39.869Z,8.57
2023-09-20T02:19:09.209Z,9.23
2023-09-20T02:21:37.426Z,11.27
2023-09-20T02:24:04.788Z,8.55
2023-09-20T02:26:32.092Z,7.22
2023-09-20T02:28:59.575Z,10.63
2023-09-20T02:31:26.772Z,7.45
2023-09-20T02:33:54.987Z,9.35
2023-09-20T02:36:22.226Z,8.60
2023-09-20T02:38:49.487Z,8.88
2023-09-20T02:41:16.904Z,9.70
2023-09-20T02:43:44.074Z,10.55
2023-09-20T02:46:11.364Z,11.38
2023-09-20T02:48:38.583Z,9.27
2023-09-20T02:51:06.789Z,10.15
2023-09-20T02:53:37.035Z,10.10
2023-09-20T02:56:05.499Z,9.05
2023-09-20T02:58:32.814Z,10.70
2023-09-20T03:00:59.956Z,12.07
2023-09-20T03:03:27.208Z,5.68
2023-09-20T03:05:54.538Z,11.60
2023-09-20T03:08:21.885Z,10.02
2023-09-20T03:10:49.152Z,11.65
2023-09-20T03:13:19.444Z,9.98
2023-09-20T03:15:46.933Z,11.18
2023-09-20T03:18:15.847Z,9.93
2023-09-20T03:20:46.027Z,10.50
2023-09-20T03:23:14.464Z,9.98
2023-09-20T03:25:41.807Z,7.00
2023-09-20T03:28:09.705Z,11.55
2023-09-20T03:30:38.929Z,8.88
2023-09-20T03:33:07.009Z,9.43
2023-09-20T03:35:35.419Z,9.27
2023-09-20T03:38:05.959Z,7.20
2023-09-20T03:40:34.594Z,9.07
2023-09-20T03:45:32.035Z,13.88
2023-09-20T03:47:59.441Z,7.47
2023-09-20T03:50:27.013Z,8.13
2023-09-20T03:52:55.010Z,6.68
2023-09-20T03:55:24.265Z,7.63
2023-09-20T03:57:51.756Z,9.38
2023-09-20T04:00:25.985Z,8.27
2023-09-20T04:02:55.488Z,8.10
2023-09-20T04:05:39.061Z,9.65
2023-09-20T04:08:07.597Z,8.23
2023-09-20T04:10:35.464Z,5.13
2023-09-20T04:13:03.463Z,8.82
2023-09-20T04:15:30.664Z,8.55
2023-09-20T04:17:58.838Z,9.20
2023-09-20T04:20:26.966Z,8.88
2023-09-20T04:22:54.363Z,7.13
2023-09-20T04:25:21.905Z,6.40
2023-09-20T04:27:49.110Z,6.22
2023-09-20T04:30:18.478Z,7.28
2023-09-20T04:32:45.771Z,8.35
2023-09-20T04:35:13.188Z,6.57
2023-09-20T04:37:40.392Z,6.03
2023-09-20T04:40:10.808Z,7.90
2023-09-20T04:42:39.621Z,7.68
2023-09-20T04:45:08.528Z,6.68
2023-09-20T04:47:38.241Z,6.53
2023-09-20T04:50:06.429Z,8.85
2023-09-20T04:52:34.527Z,7.00
2023-09-20T04:55:02.654Z,9.65
2023-09-20T04:57:30.370Z,11.30
2023-09-20T04:59:57.580Z,8.40
2023-09-20T05:02:25.222Z,6.22
2023-09-20T05:04:55.011Z,7.65
2023-09-20T05:07:22.289Z,5.40
2023-09-20T05:09:51.316Z,9.27
2023-09-20T05:12:18.780Z,7.18
2023-09-20T05:14:53.725Z,5.70
2023-09-20T05:17:21.214Z,7.70
2023-09-20T05:19:48.474Z,8.02
2023-09-20T05:22:15.642Z,8.38
2023-09-20T05:24:42.802Z,8.48
2023-09-20T05:27:09.986Z,7.38
2023-09-20T05:29:37.222Z,11.40
2023-09-20T05:32:04.583Z,9.27
2023-09-20T05:34:35.995Z,11.63
2023-09-20T05:37:03.221Z,13.02
2023-09-20T05:39:31.359Z,7.05
2023-09-20T05:42:00.353Z,11.60
2023-09-20T05:44:30.355Z,7.20
2023-09-20T05:46:57.579Z,11.45
2023-09-20T05:49:24.808Z,9.57
2023-09-20T05:51:53.578Z,8.20
2023-09-20T05:54:20.857Z,6.72
2023-09-20T05:56:48.122Z,21.42
2023-09-20T05:59:15.765Z,11.98
2023-09-20T06:01:43.106Z,6.72
2023-09-20T06:04:15.185Z,7.45
2023-09-20T06:06:42.749Z,9.85
2023-09-20T06:09:10.416Z,10.77
2023-09-20T06:11:37.742Z,8.05
2023-09-20T06:14:10.151Z,7.50
2023-09-20T06:16:39.549Z,10.55
2023-09-20T06:19:09.213Z,12.23
2023-09-20T06:21:39.518Z,8.98
2023-09-20T06:24:10.144Z,7.63
2023-09-20T06:26:59.859Z,8.77
2023-09-20T06:29:28.421Z,8.70
2023-09-20T06:31:55.810Z,6.70
2023-09-20T06:34:25.728Z,10.20
2023-09-20T06:36:53.381Z,7.13
2023-09-20T06:39:20.692Z,9.45
2023-09-20T06:41:49.563Z,11.98
2023-09-20T12:39:18.119Z,6.57
2023-09-20T12:41:48.406Z,5.97
2023-09-20T12:44:15.784Z,6.95
2023-09-20T13:00:34.261Z,7.20
2023-09-20T13:03:08.782Z,6.13
2023-09-20T13:05:41.656Z,6.20
2023-09-20T13:08:18.241Z,5.43
2023-09-20T13:10:47.475Z,4.75
2023-09-20T13:13:16.170Z,11.88
2023-09-20T13:15:44.110Z,6.10
2023-09-20T13:18:12.410Z,5.78
2023-09-20T13:20:42.451Z,5.30
2023-09-20T13:23:10.645Z,5.97
2023-09-20T13:25:43.274Z,6.72
2023-09-20T13:28:10.821Z,5.70
2023-09-20T13:50:01.701Z,4.40
2023-09-20T13:52:30.956Z,6.75
2023-09-20T13:54:58.373Z,5.22
2023-09-20T13:57:25.682Z,5.13
2023-09-20T13:59:55.637Z,7.40
2023-09-20T14:02:23.807Z,7.60
2023-09-20T14:07:18.267Z,5.20
2023-09-20T14:09:46.012Z,8.43
2023-09-20T14:12:20.027Z,4.28
2023-09-20T14:14:48.946Z,6.50
2023-09-20T14:17:17.803Z,4.22
2023-09-20T14:19:44.977Z,6.57
2023-09-20T14:22:12.546Z,5.38
2023-09-20T14:24:40.429Z,4.45
2023-09-20T14:27:07.581Z,5.60
2023-09-20T14:29:35.230Z,3.25
2023-09-20T14:32:02.602Z,5.60
2023-09-20T16:03:31.653Z,3.75
2023-09-20T16:05:59.315Z,3.13
2023-09-20T16:08:28.427Z,5.50
2023-09-20T16:10:56.023Z,3.22
2023-09-20T16:13:24.398Z,3.13
2023-09-20T16:15:52.142Z,2.28
2023-09-20T16:21:42.326Z,5.13
2023-09-20T16:24:10.830Z,6.60
2023-09-20T16:26:38.939Z,8.77
2023-09-20T16:29:06.174Z,5.43
2023-09-20T16:31:54.211Z,3.92
2023-09-20T16:34:24.507Z,5.10
2023-09-20T16:36:51.672Z,4.68
2023-09-20T16:39:18.871Z,3.85
2023-09-20T16:41:46.234Z,6.60
2023-09-20T16:44:13.411Z,4.82
2023-09-20T16:46:40.637Z,5.40
2023-09-20T16:49:07.826Z,3.80
2023-09-20T16:51:35.008Z,4.55
2023-09-20T16:54:02.250Z,5.78
2023-09-20T16:56:30.184Z,7.18
2023-09-20T16:58:57.455Z,4.63
2023-09-20T17:01:24.650Z,4.80
2023-09-20T17:03:51.985Z,4.38
2023-09-20T17:06:24.530Z,3.05
2023-09-20T17:08:51.740Z,5.18
2023-09-20T17:11:19.768Z,3.78
2023-09-20T17:13:47.013Z,5.20
2023-09-20T17:16:14.282Z,5.40
2023-09-20T17:18:42.138Z,5.32
2023-09-20T17:21:10.938Z,3.83
2023-09-20T17:23:40.317Z,6.85
2023-09-20T17:26:10.393Z,4.95
2023-09-20T17:28:38.078Z,5.85
2023-09-20T17:31:11.949Z,4.32
2023-09-20T17:33:41.275Z,5.70
2023-09-20T17:36:12.832Z,5.75
2023-09-20T17:38:44.266Z,4.38
2023-09-20T17:41:20.444Z,5.60
2023-09-20T17:43:50.229Z,7.07
2023-09-20T17:46:19.830Z,3.67
2023-09-20T17:48:47.594Z,6.03
2023-09-20T17:57:55.320Z,6.43
2023-09-20T18:00:26.290Z,5.60
2023-09-20T18:02:54.600Z,5.93
2023-09-20T18:07:49.242Z,6.07
2023-09-20T18:10:16.664Z,7.75
2023-09-20T18:12:44.906Z,6.35
2023-09-20T18:15:12.856Z,6.15
2023-09-20T18:17:44.973Z,4.93
2023-09-20T18:20:12.464Z,7.13
2023-09-20T18:22:40.440Z,3.67
2023-09-20T18:25:11.104Z,4.13
2023-09-20T18:27:39.544Z,6.63
2023-09-20T18:32:39.396Z,5.13
2023-09-20T18:35:06.907Z,6.07
2023-09-20T18:37:34.346Z,4.53
2023-09-20T18:40:01.628Z,5.32
2023-09-20T18:42:29.824Z,4.18
2023-09-20T18:44:57.226Z,5.22
2023-09-20T18:47:37.090Z,3.08
2023-09-20T18:50:09.752Z,7.78
2023-09-20T18:52:37.019Z,6.00
2023-09-20T18:55:04.383Z,4.40
2023-09-20T18:57:31.777Z,5.35
2023-09-20T18:59:59.444Z,7.22
2023-09-20T19:02:26.917Z,6.22
2023-09-20T19:04:55.999Z,6.10
2023-09-20T19:07:24.686Z,6.50
2023-09-20T19:09:56.108Z,3.35
2023-09-20T19:12:23.938Z,5.15
2023-09-20T19:14:51.931Z,3.92
2023-09-20T19:17:20.424Z,6.78
2023-09-20T19:22:15.094Z,6.22
2023-09-20T19:24:45.580Z,7.13
2023-09-20T19:27:14.427Z,5.60
2023-09-20T19:29:41.804Z,5.75
2023-09-20T19:35:31.918Z,3.60
2023-09-20T19:37:59.969Z,6.88
2023-09-20T19:40:27.504Z,5.38
2023-09-20T19:42:54.714Z,4.45
2023-09-20T19:45:22.049Z,4.43
2023-09-20T19:47:49.809Z,5.40
2023-09-20T19:50:23.190Z,5.57
2023-09-20T19:52:50.935Z,4.82
2023-09-20T19:55:28.783Z,4.05
2023-09-20T19:57:56.760Z,4.97
2023-09-20T20:00:29.039Z,4.25
2023-09-20T20:02:57.542Z,6.32
2023-09-20T20:05:25.596Z,8.10
2023-09-20T20:07:54.507Z,4.20
2023-09-20T20:10:22.932Z,4.55
2023-09-20T20:15:20.174Z,6.07
2023-09-20T20:17:50.276Z,4.53
2023-09-20T20:20:20.333Z,5.32
2023-09-20T20:22:49.474Z,6.10
2023-09-20T20:25:23.063Z,5.72
2023-09-20T20:27:52.417Z,7.22
2023-09-20T20:30:20.228Z,5.65
2023-09-20T20:32:50.975Z,6.47
2023-09-20T20:35:18.965Z,6.80
2023-09-20T20:37:47.115Z,7.03
2023-09-20T20:40:15.398Z,5.57
2023-09-20T20:42:43.391Z,6.00
2023-09-20T20:45:15.491Z,5.80
2023-09-20T20:47:44.913Z,4.53
2023-09-20T20:50:16.102Z,4.65
2023-09-20T20:52:50.289Z,4.90
2023-09-20T20:55:20.950Z,5.82
2023-09-20T20:57:49.689Z,5.55
2023-09-20T21:00:25.841Z,5.55
2023-09-20T21:02:54.364Z,4.28
2023-09-20T21:05:25.632Z,5.97
2023-09-20T21:07:53.735Z,6.65
2023-09-20T21:10:22.396Z,5.78
2023-09-20T21:12:50.981Z,5.50
2023-09-20T21:17:54.617Z,6.05
2023-09-20T21:20:23.155Z,5.00
2023-09-20T21:22:53.823Z,3.90
2023-09-20T21:25:28.296Z,5.22
2023-09-20T21:30:24.800Z,6.80
2023-09-20T21:35:19.514Z,6.35
2023-09-20T21:37:47.150Z,3.50
2023-09-20T21:40:19.326Z,4.90
2023-09-20T21:42:46.731Z,9.02
2023-09-20T21:45:14.400Z,3.58
2023-09-20T21:47:41.759Z,3.72
2023-09-20T21:50:11.288Z,5.72
2023-09-20T21:52:38.771Z,6.40
2023-09-20T21:55:15.670Z,7.03
2023-09-20T21:57:43.271Z,4.65
2023-09-20T22:00:31.670Z,7.20
2023-09-20T22:03:04.960Z,5.03
2023-09-20T22:05:33.219Z,6.20
2023-09-20T22:08:04.850Z,5.10
2023-09-20T22:10:41.834Z,6.15
2023-09-20T22:13:10.790Z,6.10
2023-09-20T22:15:38.591Z,5.97
2023-09-20T22:18:20.253Z,7.57
2023-09-20T22:20:51.901Z,7.40
2023-09-20T22:23:19.757Z,3.83
2023-09-20T22:25:49.921Z,4.85
2023-09-20T22:28:19.196Z,5.45
2023-09-20T22:30:46.794Z,6.78
2023-09-20T22:33:14.258Z,4.15
2023-09-20T22:35:42.634Z,5.75
2023-09-20T22:40:39.533Z,6.25
2023-09-20T22:43:06.923Z,5.13
2023-09-20T22:45:38.560Z,7.22
2023-09-20T22:48:07.076Z,4.38
2023-09-20T22:50:40.111Z,4.60
2023-09-20T22:53:10.685Z,4.47
2023-09-20T22:55:42.100Z,6.60
2023-09-20T22:58:15.709Z,5.57
2023-09-20T23:00:47.482Z,4.75
2023-09-20T23:03:18.186Z,6.50
2023-09-20T23:05:51.296Z,4.63
2023-09-20T23:08:23.736Z,5.00
2023-09-20T23:10:53.821Z,5.88
2023-09-20T23:13:26.884Z,5.20
2023-09-20T23:15:54.790Z,3.92
2023-09-20T23:18:23.597Z,3.40
2023-09-20T23:20:52.369Z,4.75
2023-09-20T23:23:20.566Z,5.65
2023-09-20T23:25:51.150Z,5.85
2023-09-20T23:28:18.607Z,5.70
2023-09-20T23:30:46.501Z,7.18
2023-09-20T23:33:15.114Z,5.35
2023-09-20T23:35:52.263Z,4.60
2023-09-20T23:38:22.574Z,5.10
2023-09-20T23:40:59.569Z,3.67
2023-09-20T23:43:26.735Z,4.47
2023-09-20T23:45:54.009Z,7.32
2023-09-20T23:48:21.284Z,5.07
2023-09-20T23:50:49.075Z,4.95
2023-09-20T23:53:16.481Z,6.32
2023-09-20T23:55:43.940Z,3.90
2023-09-20T23:58:13.019Z,4.10
